createdAt,value
2023-01-31T00:01:06.392Z,0.90
2023-01-31T00:03:34.090Z,0.90
2023-01-31T00:06:11.891Z,0.90
2023-01-31T00:08:39.662Z,0.80
2023-01-31T00:11:07.578Z,0.90
2023-01-31T00:13:35.427Z,0.80
2023-01-31T00:16:03.248Z,0.80
2023-01-31T00:18:31.035Z,0.80
2023-01-31T00:20:58.775Z,0.80
2023-01-31T00:23:29.286Z,0.73
2023-01-31T00:25:57.008Z,0.90
2023-01-31T00:28:24.732Z,0.90
2023-01-31T00:30:52.484Z,0.70
2023-01-31T00:33:20.175Z,0.80
2023-01-31T00:35:47.928Z,0.80
2023-01-31T00:38:15.668Z,0.70
2023-01-31T00:40:52.400Z,0.67
2023-01-31T00:43:20.127Z,0.63
2023-01-31T00:45:47.969Z,0.70
2023-01-31T00:48:15.696Z,0.70
2023-01-31T00:50:43.452Z,0.80
2023-01-31T00:53:11.283Z,0.80
2023-01-31T00:55:39.072Z,0.80
2023-01-31T00:58:08.150Z,0.80
2023-01-31T01:00:35.959Z,0.77
2023-01-31T01:03:03.713Z,0.70
2023-01-31T01:05:31.408Z,0.80
2023-01-31T01:07:59.170Z,0.80
2023-01-31T01:10:26.889Z,0.80
2023-01-31T01:12:54.635Z,0.80
2023-01-31T01:15:23.813Z,0.70
2023-01-31T01:17:51.787Z,0.80
2023-01-31T01:20:20.017Z,0.70
2023-01-31T01:22:47.715Z,0.80
2023-01-31T01:25:15.416Z,0.80
2023-01-31T01:27:43.256Z,0.70
2023-01-31T01:30:12.103Z,0.80
2023-01-31T01:32:41.199Z,0.80
2023-01-31T01:35:10.175Z,0.70
2023-01-31T01:37:37.897Z,0.80
2023-01-31T01:40:05.993Z,0.60
2023-01-31T01:42:35.447Z,0.70
2023-01-31T01:45:03.687Z,0.70
2023-01-31T01:47:36.166Z,1.00
2023-01-31T01:50:08.041Z,0.70
2023-01-31T01:52:37.205Z,0.70
2023-01-31T01:55:08.182Z,0.70
2023-01-31T01:57:37.834Z,0.70
2023-01-31T02:00:10.193Z,0.90
2023-01-31T02:02:38.253Z,0.70
2023-01-31T02:05:08.066Z,0.80
2023-01-31T02:07:36.007Z,0.80
2023-01-31T02:10:05.971Z,0.87
2023-01-31T02:12:34.115Z,0.80
2023-01-31T02:15:01.815Z,0.83
2023-01-31T02:17:30.065Z,0.80
2023-01-31T02:20:12.762Z,0.70
2023-01-31T02:22:44.157Z,0.80
2023-01-31T02:25:30.452Z,0.80
2023-01-31T02:28:16.517Z,0.77
2023-01-31T02:30:54.663Z,0.70
2023-01-31T02:33:26.091Z,0.70
2023-01-31T02:35:59.541Z,0.70
2023-01-31T02:38:34.584Z,0.90
2023-01-31T02:41:04.762Z,0.80
2023-01-31T02:43:57.401Z,0.80
2023-01-31T02:46:26.870Z,0.70
2023-01-31T02:48:59.165Z,0.80
2023-01-31T02:51:31.019Z,0.80
2023-01-31T02:54:02.949Z,0.70
2023-01-31T02:56:31.228Z,0.70
2023-01-31T02:59:00.543Z,0.60
2023-01-31T03:01:29.681Z,0.50
2023-01-31T03:04:00.904Z,0.60
2023-01-31T03:06:54.861Z,0.50
2023-01-31T03:09:30.213Z,0.60
2023-01-31T03:12:05.900Z,0.60
2023-01-31T03:14:36.978Z,0.60
2023-01-31T03:17:39.769Z,0.60
2023-01-31T03:20:11.791Z,0.60
2023-01-31T03:22:41.306Z,0.50
2023-01-31T03:25:10.879Z,0.60
2023-01-31T03:27:39.427Z,0.77
2023-01-31T03:30:09.795Z,0.70
2023-01-31T03:32:40.670Z,0.80
2023-01-31T03:35:10.769Z,0.60
2023-01-31T03:37:38.953Z,0.80
2023-01-31T03:40:07.881Z,0.80
2023-01-31T03:42:44.869Z,0.80
2023-01-31T03:45:14.638Z,0.70
2023-01-31T03:47:43.036Z,0.60
2023-01-31T03:50:15.278Z,0.70
2023-01-31T03:52:46.041Z,0.70
2023-01-31T03:55:16.965Z,0.70
2023-01-31T03:57:47.409Z,0.60
2023-01-31T04:00:18.109Z,0.60
2023-01-31T04:02:45.873Z,0.60
2023-01-31T04:05:18.472Z,0.60
2023-01-31T04:07:46.387Z,0.50
2023-01-31T04:10:15.432Z,0.60
2023-01-31T04:12:43.310Z,0.50
2023-01-31T04:15:11.591Z,0.70
2023-01-31T04:17:39.319Z,0.50
2023-01-31T04:20:08.073Z,0.50
2023-01-31T04:22:37.308Z,0.57
2023-01-31T04:25:05.719Z,0.60
2023-01-31T04:27:33.533Z,0.50
2023-01-31T04:30:01.296Z,0.50
2023-01-31T04:32:29.291Z,0.50
2023-01-31T04:34:57.076Z,0.50
2023-01-31T04:37:24.833Z,0.40
2023-01-31T04:39:53.936Z,0.50
2023-01-31T04:42:21.663Z,0.43
2023-01-31T04:44:49.418Z,0.47
2023-01-31T04:47:17.388Z,0.50
2023-01-31T04:49:45.258Z,0.40
2023-01-31T04:52:13.441Z,0.40
2023-01-31T04:54:41.972Z,0.43
2023-01-31T04:57:11.090Z,0.50
2023-01-31T04:59:38.817Z,0.40
2023-01-31T05:02:06.541Z,0.40
2023-01-31T05:04:34.313Z,0.50
2023-01-31T05:07:02.053Z,0.50
2023-01-31T05:09:29.766Z,0.47
2023-01-31T05:11:57.473Z,0.40
2023-01-31T05:14:27.448Z,0.43
2023-01-31T05:16:55.161Z,0.50
2023-01-31T05:19:22.931Z,0.50
2023-01-31T05:21:59.048Z,0.40
2023-01-31T05:24:27.744Z,0.40
2023-01-31T05:26:58.611Z,0.50
2023-01-31T05:29:28.550Z,0.50
2023-01-31T05:31:57.557Z,0.50
2023-01-31T05:34:26.406Z,0.40
2023-01-31T05:36:54.404Z,0.53
2023-01-31T05:39:22.174Z,0.60
2023-01-31T05:41:50.003Z,0.50
2023-01-31T05:44:17.843Z,0.40
2023-01-31T05:46:47.121Z,0.40
2023-01-31T05:49:15.167Z,0.40
2023-01-31T05:51:42.903Z,0.43
2023-01-31T05:54:12.162Z,0.50
2023-01-31T05:56:40.294Z,0.50
2023-01-31T05:59:08.036Z,0.50
2023-01-31T06:01:35.766Z,0.50
2023-01-31T06:04:04.904Z,0.40
2023-01-31T06:06:33.344Z,0.50
2023-01-31T06:09:01.242Z,0.50
2023-01-31T06:11:29.031Z,0.40
2023-01-31T06:13:58.573Z,0.40
2023-01-31T06:16:26.415Z,0.50
2023-01-31T06:18:55.699Z,0.40
2023-01-31T06:21:24.947Z,0.40
2023-01-31T06:23:52.684Z,0.50
2023-01-31T06:26:20.517Z,0.40
2023-01-31T06:28:48.377Z,0.40
2023-01-31T06:31:16.187Z,0.40
2023-01-31T06:33:47.390Z,0.43
2023-01-31T06:36:18.572Z,0.40
2023-01-31T06:38:53.639Z,0.50
2023-01-31T06:41:21.822Z,0.40
2023-01-31T06:43:49.515Z,0.50
2023-01-31T06:46:17.587Z,0.40
2023-01-31T06:48:45.543Z,0.40
2023-01-31T06:51:13.266Z,0.30
2023-01-31T06:53:40.973Z,0.40
2023-01-31T06:56:10.380Z,0.40
2023-01-31T06:58:38.081Z,0.40
2023-01-31T07:01:06.325Z,0.50
2023-01-31T07:03:34.082Z,0.40
2023-01-31T07:06:01.781Z,0.40
2023-01-31T07:08:30.250Z,0.30
2023-01-31T07:10:58.086Z,0.30
2023-01-31T07:13:27.269Z,0.40
2023-01-31T07:15:55.037Z,0.37
2023-01-31T07:18:22.766Z,0.33
2023-01-31T07:20:51.372Z,0.40
2023-01-31T07:23:19.076Z,0.50
2023-01-31T07:25:46.759Z,0.40
2023-01-31T07:28:14.461Z,0.37
2023-01-31T07:30:44.013Z,0.30
2023-01-31T07:33:11.939Z,0.40
2023-01-31T07:35:39.702Z,0.50
2023-01-31T07:38:08.909Z,0.40
2023-01-31T07:40:37.580Z,0.40
2023-01-31T07:43:05.294Z,0.40
2023-01-31T07:45:33.425Z,0.50
2023-01-31T07:48:02.552Z,0.40
2023-01-31T07:50:30.736Z,0.40
2023-01-31T07:52:58.859Z,0.40
2023-01-31T07:55:26.619Z,0.40
2023-01-31T07:57:54.348Z,0.50
2023-01-31T08:00:42.484Z,0.40
2023-01-31T08:03:36.490Z,0.40
2023-01-31T08:06:05.094Z,0.40
2023-01-31T08:08:32.961Z,0.30
2023-01-31T08:11:00.687Z,0.40
2023-01-31T08:13:28.408Z,0.37
2023-01-31T08:15:56.067Z,0.30
2023-01-31T08:18:25.149Z,0.40
2023-01-31T08:20:52.850Z,0.40
2023-01-31T08:23:20.566Z,0.40
2023-01-31T08:25:48.269Z,0.30
2023-01-31T08:28:16.389Z,0.40
2023-01-31T08:30:50.353Z,0.47
2023-01-31T08:33:25.588Z,0.40
2023-01-31T08:35:53.284Z,0.33
2023-01-31T08:38:21.328Z,0.40
2023-01-31T08:40:50.261Z,0.40
2023-01-31T08:43:17.980Z,0.50
2023-01-31T08:45:46.220Z,0.40
2023-01-31T08:48:15.005Z,0.40
2023-01-31T08:50:44.089Z,0.50
2023-01-31T08:53:11.784Z,0.40
2023-01-31T08:55:39.491Z,0.40
2023-01-31T08:58:07.205Z,0.47
2023-01-31T09:00:35.724Z,0.60
2023-01-31T09:03:03.583Z,0.40
2023-01-31T09:05:33.706Z,0.50
2023-01-31T09:08:02.852Z,0.50
2023-01-31T09:10:30.583Z,0.73
2023-01-31T09:13:00.130Z,0.70
2023-01-31T09:15:27.921Z,0.67
2023-01-31T09:17:55.595Z,0.60
2023-01-31T09:20:23.422Z,0.77
2023-01-31T09:22:51.180Z,0.60
2023-01-31T09:25:30.391Z,0.70
2023-01-31T09:28:05.343Z,0.80
2023-01-31T09:30:33.405Z,0.70
2023-01-31T09:33:01.851Z,0.60
2023-01-31T09:35:29.544Z,0.63
2023-01-31T09:37:57.260Z,0.63
2023-01-31T09:40:28.435Z,0.83
2023-01-31T09:42:57.075Z,0.70
2023-01-31T09:45:28.484Z,0.80
2023-01-31T09:47:57.742Z,0.70
2023-01-31T09:50:35.623Z,0.60
2023-01-31T09:53:03.600Z,0.60
2023-01-31T09:55:36.865Z,0.60
2023-01-31T09:58:08.317Z,0.70
2023-01-31T10:00:39.403Z,0.70
2023-01-31T10:03:20.630Z,0.60
2023-01-31T10:05:51.093Z,0.67
2023-01-31T10:08:21.703Z,0.60
2023-01-31T10:10:52.481Z,0.60
2023-01-31T10:13:23.799Z,0.40
2023-01-31T10:15:54.189Z,0.60
2023-01-31T10:18:27.018Z,0.50
2023-01-31T10:20:55.979Z,0.50
2023-01-31T10:23:27.056Z,0.60
2023-01-31T10:25:58.685Z,0.50
2023-01-31T10:28:30.263Z,0.40
2023-01-31T10:31:00.000Z,0.40
2023-01-31T10:33:30.619Z,0.30
2023-01-31T10:36:01.703Z,0.30
2023-01-31T10:38:32.683Z,0.30
2023-01-31T10:41:06.785Z,0.30
2023-01-31T10:43:40.616Z,0.30
2023-01-31T10:46:11.602Z,0.30
2023-01-31T10:48:40.407Z,0.30
2023-01-31T10:51:11.520Z,0.30
2023-01-31T10:53:46.204Z,0.20
2023-01-31T10:56:20.029Z,0.30
2023-01-31T10:58:47.971Z,0.30
2023-01-31T11:01:15.733Z,0.40
2023-01-31T11:03:47.364Z,0.40
2023-01-31T11:06:15.467Z,0.30
2023-01-31T11:08:44.616Z,0.30
2023-01-31T11:11:13.742Z,0.30
2023-01-31T11:13:42.856Z,0.30
2023-01-31T11:16:11.739Z,0.30
2023-01-31T11:18:44.539Z,0.40
2023-01-31T11:21:20.006Z,0.33
2023-01-31T11:23:47.955Z,0.30
2023-01-31T11:26:25.836Z,0.40
2023-01-31T11:28:56.013Z,0.40
2023-01-31T11:31:29.154Z,0.30
2023-01-31T11:33:58.038Z,0.40
2023-01-31T11:36:26.996Z,0.50
2023-01-31T11:38:55.841Z,0.40
2023-01-31T11:41:34.599Z,0.50
2023-01-31T11:44:17.144Z,0.50
2023-01-31T11:46:52.336Z,0.40
2023-01-31T11:49:23.073Z,0.50
2023-01-31T11:51:51.362Z,0.50
2023-01-31T11:54:21.480Z,0.40
2023-01-31T11:56:49.613Z,0.40
2023-01-31T11:59:20.729Z,0.47
2023-01-31T12:01:50.200Z,0.33
2023-01-31T12:04:19.308Z,0.40
2023-01-31T12:06:57.606Z,0.40
2023-01-31T12:09:26.035Z,0.50
2023-01-31T12:11:54.434Z,0.50
2023-01-31T12:14:25.201Z,0.50
2023-01-31T12:16:55.756Z,0.50
2023-01-31T12:19:30.521Z,0.50
2023-01-31T12:22:03.913Z,0.50
2023-01-31T12:24:37.266Z,0.50
2023-01-31T12:27:07.781Z,0.50
2023-01-31T12:29:50.801Z,0.50
2023-01-31T12:32:25.666Z,0.43
2023-01-31T12:35:08.762Z,0.50
2023-01-31T12:37:47.202Z,0.50
2023-01-31T12:40:32.775Z,0.53
2023-01-31T12:43:00.997Z,0.60
2023-01-31T12:45:39.992Z,0.60
2023-01-31T12:48:23.829Z,0.60
2023-01-31T12:50:53.630Z,0.50
2023-01-31T12:53:42.112Z,0.60
2023-01-31T12:56:26.474Z,0.50
2023-01-31T12:59:13.792Z,0.60
2023-01-31T13:01:46.899Z,0.60
2023-01-31T13:04:25.321Z,0.50
2023-01-31T13:06:55.252Z,0.60
2023-01-31T13:09:24.573Z,0.70
2023-01-31T13:11:55.155Z,0.50
2023-01-31T13:14:24.421Z,0.50
2023-01-31T13:16:55.409Z,0.60
2023-01-31T13:19:25.166Z,0.50
2023-01-31T13:21:55.543Z,0.50
2023-01-31T13:24:25.492Z,0.60
2023-01-31T13:26:56.093Z,0.60
2023-01-31T13:29:26.619Z,0.50
2023-01-31T13:31:59.736Z,0.60
2023-01-31T13:34:30.019Z,0.60
2023-01-31T13:36:59.862Z,0.60
2023-01-31T13:39:29.599Z,0.60
2023-01-31T13:41:57.302Z,0.53
2023-01-31T13:44:24.970Z,0.50
2023-01-31T13:46:54.730Z,0.60
2023-01-31T13:49:25.921Z,0.50
2023-01-31T13:51:55.947Z,0.63
2023-01-31T13:54:26.275Z,0.60
2023-01-31T13:56:55.400Z,0.50
2023-01-31T13:59:24.402Z,0.60
2023-01-31T14:01:52.532Z,0.70
2023-01-31T14:04:31.887Z,0.70
2023-01-31T14:07:14.436Z,0.67
2023-01-31T14:09:44.885Z,0.70
2023-01-31T14:12:33.383Z,0.70
2023-01-31T14:15:01.209Z,0.70
2023-01-31T14:17:46.852Z,0.70
2023-01-31T14:20:27.886Z,0.70
2023-01-31T14:23:14.173Z,0.53
2023-01-31T14:25:42.455Z,0.60
2023-01-31T14:28:11.603Z,0.50
2023-01-31T14:30:43.106Z,0.53
2023-01-31T14:33:22.037Z,0.50
2023-01-31T14:36:01.129Z,0.70
2023-01-31T14:38:36.552Z,0.60
2023-01-31T14:41:06.435Z,0.60
2023-01-31T14:43:40.732Z,0.50
2023-01-31T14:46:14.784Z,0.63
2023-01-31T14:49:05.641Z,0.60
2023-01-31T14:51:41.918Z,0.60
2023-01-31T14:54:21.973Z,0.60
2023-01-31T14:57:02.015Z,0.70
2023-01-31T14:59:33.042Z,0.60
2023-01-31T15:02:01.399Z,0.70
2023-01-31T15:04:29.460Z,0.70
2023-01-31T15:06:58.656Z,0.70
2023-01-31T15:09:37.501Z,0.60
2023-01-31T15:12:07.871Z,0.70
2023-01-31T15:14:37.830Z,0.70
2023-01-31T15:17:14.987Z,0.60
2023-01-31T15:19:54.226Z,0.70
2023-01-31T15:22:23.972Z,0.63
2023-01-31T15:24:53.067Z,0.70
2023-01-31T15:27:24.437Z,0.70
2023-01-31T15:29:56.413Z,0.70
2023-01-31T15:32:26.045Z,0.70
2023-01-31T15:34:57.028Z,0.70
2023-01-31T15:37:29.977Z,0.70
2023-01-31T15:40:00.751Z,0.70
2023-01-31T15:42:29.198Z,0.70
2023-01-31T15:45:11.834Z,0.60
2023-01-31T15:47:39.588Z,0.60
2023-01-31T15:50:14.667Z,0.70
2023-01-31T15:52:46.893Z,0.70
2023-01-31T15:55:15.513Z,0.60
2023-01-31T15:57:45.663Z,0.70
2023-01-31T16:00:19.654Z,0.70
2023-01-31T16:02:47.921Z,0.60
2023-01-31T16:05:20.434Z,0.70
2023-01-31T16:07:50.276Z,0.50
2023-01-31T16:10:18.197Z,0.60
2023-01-31T16:12:46.671Z,0.57
2023-01-31T16:15:18.499Z,0.50
2023-01-31T16:17:46.613Z,0.70
2023-01-31T16:20:29.213Z,0.67
2023-01-31T16:22:58.373Z,0.70
2023-01-31T16:25:26.199Z,0.70
2023-01-31T16:27:59.667Z,0.70
2023-01-31T16:30:27.387Z,0.83
2023-01-31T16:32:56.676Z,0.70
2023-01-31T16:35:25.757Z,0.70
2023-01-31T16:38:03.675Z,0.80
2023-01-31T16:40:32.485Z,0.80
2023-01-31T16:43:09.889Z,0.60
2023-01-31T16:45:37.691Z,0.60
2023-01-31T16:48:18.356Z,0.60
2023-01-31T16:50:46.105Z,0.60
2023-01-31T16:53:17.741Z,0.77
2023-01-31T16:55:45.982Z,0.67
2023-01-31T16:58:33.729Z,0.60
2023-01-31T17:01:11.044Z,0.70
2023-01-31T17:03:38.834Z,0.60
2023-01-31T17:06:07.119Z,0.70
2023-01-31T17:08:39.432Z,0.60
2023-01-31T17:11:07.982Z,0.60
2023-01-31T17:13:35.738Z,0.60
2023-01-31T17:16:03.609Z,0.60
2023-01-31T17:18:33.222Z,0.50
2023-01-31T17:21:00.979Z,0.50
2023-01-31T17:23:28.690Z,0.67
2023-01-31T17:25:57.751Z,0.60
2023-01-31T17:28:25.517Z,0.50
2023-01-31T17:30:53.371Z,0.70
2023-01-31T17:33:21.202Z,0.70
2023-01-31T17:35:48.916Z,0.60
2023-01-31T17:38:16.628Z,0.70
2023-01-31T17:40:45.062Z,0.60
2023-01-31T17:43:18.210Z,0.60
2023-01-31T17:45:45.938Z,0.80
2023-01-31T17:48:17.332Z,0.60
2023-01-31T17:50:53.574Z,0.60
2023-01-31T17:53:21.449Z,0.67
2023-01-31T17:55:49.245Z,0.70
2023-01-31T17:58:19.223Z,0.60
2023-01-31T18:00:47.803Z,0.77
2023-01-31T18:03:17.412Z,0.70
2023-01-31T18:05:45.366Z,0.70
2023-01-31T18:08:13.646Z,0.70
2023-01-31T18:10:41.531Z,0.70
2023-01-31T18:13:09.576Z,0.70
2023-01-31T18:15:40.185Z,0.70
2023-01-31T18:18:08.945Z,0.80
2023-01-31T18:20:37.089Z,0.70
2023-01-31T18:23:04.879Z,0.60
2023-01-31T18:25:32.614Z,0.70
2023-01-31T18:28:00.478Z,0.60
2023-01-31T18:30:28.260Z,0.70
2023-01-31T18:32:57.404Z,0.70
2023-01-31T18:35:25.099Z,0.77
2023-01-31T18:37:53.528Z,0.80
2023-01-31T18:40:21.310Z,0.80
2023-01-31T18:42:49.031Z,0.70
2023-01-31T18:45:16.803Z,0.70
2023-01-31T18:47:44.501Z,0.80
2023-01-31T18:50:13.832Z,0.80
2023-01-31T18:52:43.935Z,0.70
2023-01-31T18:55:11.706Z,0.70
2023-01-31T18:57:39.463Z,0.80
2023-01-31T19:00:07.753Z,0.80
2023-01-31T19:02:35.637Z,0.70
2023-01-31T19:05:03.387Z,0.80
2023-01-31T19:07:34.679Z,0.90
2023-01-31T19:10:02.467Z,0.80
2023-01-31T19:12:30.168Z,0.80
2023-01-31T19:14:57.895Z,0.70
2023-01-31T19:17:25.665Z,0.70
2023-01-31T19:19:53.435Z,0.83
2023-01-31T19:22:21.220Z,0.50
2023-01-31T19:24:50.364Z,0.70
2023-01-31T19:27:18.098Z,0.70
2023-01-31T19:29:45.827Z,0.70
2023-01-31T19:32:13.549Z,0.60
2023-01-31T19:34:41.318Z,0.70
2023-01-31T19:37:09.115Z,0.63
2023-01-31T19:39:36.873Z,0.60
2023-01-31T19:42:06.096Z,0.70
2023-01-31T19:44:33.845Z,0.70
2023-01-31T19:47:01.600Z,0.70
2023-01-31T19:49:29.321Z,0.80
2023-01-31T19:51:57.100Z,0.80
2023-01-31T19:54:27.091Z,0.60
2023-01-31T19:56:55.641Z,0.80
2023-01-31T19:59:24.768Z,0.70
2023-01-31T20:01:52.579Z,0.63
2023-01-31T20:04:20.351Z,0.73
2023-01-31T20:06:48.208Z,0.80
2023-01-31T20:09:20.080Z,0.70
2023-01-31T20:11:47.969Z,0.73
2023-01-31T20:14:15.698Z,0.70
2023-01-31T20:16:45.017Z,0.80
2023-01-31T20:19:12.923Z,0.80
2023-01-31T20:21:40.903Z,0.87
2023-01-31T20:24:09.027Z,0.67
2023-01-31T20:26:36.877Z,0.70
2023-01-31T20:29:04.782Z,0.77
2023-01-31T20:31:32.640Z,0.90
2023-01-31T20:34:02.217Z,0.80
2023-01-31T20:36:30.024Z,0.80
2023-01-31T20:38:57.767Z,0.90
2023-01-31T20:41:25.498Z,0.80
2023-01-31T20:43:54.215Z,0.80
2023-01-31T20:46:22.058Z,0.87
2023-01-31T20:48:49.848Z,0.60
2023-01-31T20:51:18.938Z,0.60
2023-01-31T20:53:46.724Z,0.80
2023-01-31T20:56:14.515Z,0.77
2023-01-31T20:58:43.325Z,0.80
2023-01-31T21:01:11.284Z,0.80
2023-01-31T21:03:39.213Z,0.60
2023-01-31T21:06:07.430Z,0.60
2023-01-31T21:08:36.968Z,0.70
2023-01-31T21:11:05.989Z,0.60
2023-01-31T21:13:34.002Z,0.70
2023-01-31T21:16:03.428Z,0.70
2023-01-31T21:18:32.447Z,0.60
2023-01-31T21:21:01.433Z,0.70
2023-01-31T21:23:29.214Z,0.70
2023-01-31T21:26:02.664Z,0.70
2023-01-31T21:28:30.410Z,0.67
2023-01-31T21:30:58.980Z,0.70
2023-01-31T21:33:26.807Z,0.77
2023-01-31T21:35:54.518Z,0.77
2023-01-31T21:38:22.259Z,0.70
2023-01-31T21:40:49.934Z,0.70
2023-01-31T21:43:18.069Z,0.80
2023-01-31T21:45:45.899Z,0.70
2023-01-31T21:48:36.359Z,0.80
2023-01-31T21:51:05.149Z,0.63
2023-01-31T21:53:32.977Z,0.70
2023-01-31T21:56:04.481Z,0.70
2023-01-31T21:58:33.916Z,0.80
2023-01-31T22:01:05.332Z,0.70
2023-01-31T22:03:33.127Z,0.80
2023-01-31T22:06:04.708Z,0.73
2023-01-31T22:08:32.743Z,0.80
2023-01-31T22:11:04.092Z,0.70
2023-01-31T22:13:33.672Z,0.80
2023-01-31T22:16:01.942Z,0.80
2023-01-31T22:18:30.328Z,0.70
2023-01-31T22:21:02.073Z,0.80
2023-01-31T22:23:30.230Z,0.70
2023-01-31T22:25:57.977Z,0.70
2023-01-31T22:28:27.012Z,0.83
2023-01-31T22:30:58.400Z,0.80
2023-01-31T22:33:26.168Z,0.80
2023-01-31T22:35:53.980Z,0.80
2023-01-31T22:38:22.069Z,0.90
2023-01-31T22:40:49.744Z,0.90
2023-01-31T22:43:18.819Z,0.80
2023-01-31T22:45:46.875Z,0.87
2023-01-31T22:48:16.790Z,0.90
2023-01-31T22:50:44.807Z,0.93
2023-01-31T22:53:12.819Z,0.83
2023-01-31T22:55:40.575Z,0.77
2023-01-31T22:58:08.611Z,0.70
2023-01-31T23:00:36.823Z,0.70
2023-01-31T23:03:04.747Z,0.73
2023-01-31T23:05:33.857Z,0.80
2023-01-31T23:08:01.586Z,0.60
2023-01-31T23:10:29.309Z,0.70
2023-01-31T23:12:57.003Z,0.80
2023-01-31T23:15:24.755Z,0.70
2023-01-31T23:17:52.499Z,0.67
2023-01-31T23:20:22.445Z,0.70
2023-01-31T23:22:53.898Z,0.70
2023-01-31T23:25:22.186Z,0.80
2023-01-31T23:27:50.148Z,0.87
2023-01-31T23:30:18.779Z,0.70
2023-01-31T23:32:46.675Z,0.73
2023-01-31T23:35:14.467Z,0.70
2023-01-31T23:37:42.303Z,0.70
2023-01-31T23:40:12.561Z,0.70
2023-01-31T23:42:40.449Z,0.77
2023-01-31T23:45:08.574Z,0.60
2023-01-31T23:47:36.342Z,0.60
2023-01-31T23:50:04.121Z,0.80
2023-01-31T23:52:31.857Z,0.70
2023-01-31T23:54:59.558Z,0.70
2023-01-31T23:57:28.704Z,0.70
2023-01-31T23:59:56.479Z,0.70
